createdAt,value
2023-04-28T00:00:47.488Z,10.77
2023-04-28T00:03:24.033Z,10.65
2023-04-28T00:06:00.556Z,12.45
2023-04-28T00:08:37.266Z,11.05
2023-04-28T00:11:13.555Z,9.93
2023-04-28T00:13:50.131Z,9.65
2023-04-28T00:16:26.217Z,11.35
2023-04-28T00:19:02.508Z,8.25
2023-04-28T00:21:39.198Z,7.65
2023-04-28T00:24:15.504Z,7.85
2023-04-28T00:26:52.150Z,6.82
2023-04-28T00:29:29.062Z,7.93
2023-04-28T00:32:05.477Z,10.13
2023-04-28T00:34:41.806Z,10.30
2023-04-28T00:37:18.478Z,8.63
2023-04-28T00:39:56.074Z,9.48
2023-04-28T00:42:32.566Z,9.05
2023-04-28T00:45:09.364Z,8.13
2023-04-28T00:47:45.714Z,9.57
2023-04-28T00:50:23.492Z,8.07
2023-04-28T00:53:00.353Z,8.35
2023-04-28T00:55:37.906Z,7.40
2023-04-28T00:58:14.414Z,12.85
2023-04-28T01:00:51.140Z,10.50
2023-04-28T01:03:27.860Z,11.02
2023-04-28T01:06:14.073Z,7.63
2023-04-28T01:08:50.534Z,8.35
2023-04-28T01:11:27.345Z,9.70
2023-04-28T01:14:28.049Z,8.70
2023-04-28T01:17:04.912Z,7.68
2023-04-28T01:19:41.933Z,7.43
2023-04-28T01:22:18.881Z,7.07
2023-04-28T01:24:56.649Z,6.15
2023-04-28T01:27:32.686Z,7.25
2023-04-28T01:30:10.912Z,6.65
2023-04-28T01:32:47.401Z,6.70
2023-04-28T01:35:23.931Z,5.32
2023-04-28T01:38:00.678Z,5.43
2023-04-28T01:40:37.303Z,5.75
2023-04-28T01:43:13.719Z,5.65
2023-04-28T01:45:50.773Z,7.68
2023-04-28T01:48:27.252Z,6.30
2023-04-28T01:51:04.495Z,5.45
2023-04-28T01:53:40.846Z,5.97
2023-04-28T01:56:17.591Z,4.70
2023-04-28T01:58:54.103Z,4.63
2023-04-28T02:01:39.723Z,3.45
2023-04-28T02:04:07.721Z,3.50
2023-04-28T02:06:38.083Z,3.42
2023-04-28T02:09:06.141Z,3.45
2023-04-28T02:11:34.696Z,3.30
2023-04-28T02:14:02.627Z,4.80
2023-04-28T02:16:30.529Z,4.35
2023-04-28T02:18:58.208Z,3.75
2023-04-28T02:21:28.964Z,3.88
2023-04-28T02:23:56.827Z,4.55
2023-04-28T02:26:25.242Z,3.72
2023-04-28T02:28:52.937Z,4.60
2023-04-28T02:31:20.647Z,4.25
2023-04-28T02:33:48.429Z,3.92
2023-04-28T02:36:16.489Z,4.13
2023-04-28T02:38:44.444Z,4.30
2023-04-28T02:41:14.366Z,4.68
2023-04-28T02:43:42.486Z,6.32
2023-04-28T02:46:10.729Z,6.50
2023-04-28T02:48:38.520Z,6.30
2023-04-28T02:51:06.269Z,6.40
2023-04-28T02:53:34.881Z,5.88
2023-04-28T02:56:04.103Z,5.47
2023-04-28T02:58:33.111Z,4.75
2023-04-28T03:01:01.024Z,3.78
2023-04-28T03:03:28.957Z,3.55
2023-04-28T03:05:56.873Z,3.80
2023-04-28T03:08:24.707Z,3.10
2023-04-28T03:13:22.059Z,3.58
2023-04-28T03:15:51.854Z,4.30
2023-04-28T03:18:19.612Z,3.80
2023-04-28T03:20:47.873Z,3.83
2023-04-28T03:23:15.894Z,3.63
2023-04-28T03:25:43.663Z,3.47
2023-04-28T03:28:12.535Z,3.88
2023-04-28T03:30:41.028Z,4.18
2023-04-28T03:33:08.876Z,5.57
2023-04-28T03:35:36.734Z,5.97
2023-04-28T03:38:04.582Z,6.75
2023-04-28T03:40:32.556Z,6.72
2023-04-28T03:43:26.706Z,6.10
2023-04-28T03:46:20.737Z,5.28
2023-04-28T03:48:48.922Z,7.03
2023-04-28T03:51:17.676Z,6.75
2023-04-28T03:53:45.668Z,6.43
2023-04-28T03:56:13.879Z,8.35
2023-04-28T03:58:41.639Z,6.85
2023-04-28T04:01:09.419Z,6.15
2023-04-28T04:03:37.786Z,5.63
2023-04-28T04:06:06.410Z,9.15
2023-04-28T04:08:34.651Z,7.30
2023-04-28T04:11:02.787Z,6.53
2023-04-28T04:13:31.550Z,6.80
2023-04-28T04:15:59.618Z,5.20
2023-04-28T04:18:28.175Z,6.93
2023-04-28T04:21:18.736Z,7.07
2023-04-28T04:23:47.454Z,7.50
2023-04-28T04:26:15.444Z,8.88
2023-04-28T04:28:43.181Z,6.82
2023-04-28T04:31:11.951Z,8.60
2023-04-28T04:33:39.662Z,6.88
2023-04-28T04:36:08.826Z,10.02
2023-04-28T04:38:36.930Z,15.20
2023-04-28T04:41:20.228Z,29.27
2023-04-28T04:43:49.526Z,29.90
2023-04-28T04:46:17.786Z,26.73
2023-04-28T04:48:46.527Z,15.85
2023-04-28T04:51:14.280Z,8.98
2023-04-28T04:53:42.840Z,8.77
2023-04-28T04:56:10.625Z,9.43
2023-04-28T04:58:38.748Z,9.13
2023-04-28T05:01:25.419Z,9.10
2023-04-28T05:03:53.395Z,6.60
2023-04-28T05:06:21.733Z,5.25
2023-04-28T05:08:50.181Z,5.87
2023-04-28T05:11:18.787Z,6.97
2023-04-28T05:13:47.857Z,5.40
2023-04-28T05:16:16.659Z,9.10
2023-04-28T05:18:59.523Z,5.78
2023-04-28T05:21:28.057Z,6.22
2023-04-28T05:23:56.717Z,6.83
2023-04-28T05:26:24.510Z,7.37
2023-04-28T05:28:55.767Z,6.82
2023-04-28T05:31:23.357Z,7.32
2023-04-28T05:33:51.818Z,6.70
2023-04-28T05:36:19.564Z,4.68
2023-04-28T05:38:47.608Z,5.97
2023-04-28T05:41:15.740Z,4.50
2023-04-28T05:43:43.505Z,5.65
2023-04-28T05:46:28.520Z,5.07
2023-04-28T05:49:00.265Z,4.45
2023-04-28T05:51:33.239Z,5.35
2023-04-28T05:54:01.079Z,5.13
2023-04-28T05:56:30.039Z,4.57
2023-04-28T05:59:00.372Z,4.03
2023-04-28T06:01:28.121Z,3.83
2023-04-28T06:03:57.531Z,3.78
2023-04-28T06:06:27.330Z,3.88
2023-04-28T06:08:55.584Z,4.00
2023-04-28T06:11:23.135Z,4.45
2023-04-28T06:13:51.335Z,4.13
2023-04-28T06:16:19.870Z,4.50
2023-04-28T06:18:49.837Z,3.95
2023-04-28T06:21:20.777Z,3.78
2023-04-28T06:23:48.484Z,3.17
2023-04-28T06:26:18.181Z,3.38
2023-04-28T06:28:46.605Z,2.80
2023-04-28T06:31:14.547Z,2.35
2023-04-28T06:33:42.280Z,2.73
2023-04-28T06:36:13.358Z,3.05
2023-04-28T06:38:42.613Z,2.67
2023-04-28T06:41:10.885Z,2.60
2023-04-28T06:43:38.961Z,2.78
2023-04-28T06:46:13.352Z,3.08
2023-04-28T06:48:42.716Z,2.30
2023-04-28T06:51:10.830Z,2.65
2023-04-28T06:53:39.570Z,2.90
2023-04-28T06:56:11.052Z,2.65
2023-04-28T06:58:39.471Z,2.45
2023-04-28T07:01:07.176Z,2.53
2023-04-28T07:03:35.581Z,3.17
2023-04-28T07:06:03.982Z,2.95
2023-04-28T07:08:31.999Z,2.80
2023-04-28T07:11:03.660Z,1.67
2023-04-28T07:13:32.062Z,1.92
2023-04-28T07:16:00.029Z,1.30
2023-04-28T07:18:28.081Z,1.52
2023-04-28T07:20:55.697Z,2.58
2023-04-28T07:23:23.598Z,2.30
2023-04-28T07:25:51.442Z,1.73
2023-04-28T07:28:20.048Z,2.10
2023-04-28T07:30:47.981Z,1.83
2023-04-28T07:33:15.696Z,3.73
2023-04-28T07:35:43.375Z,3.00
2023-04-28T07:38:11.146Z,1.52
2023-04-28T07:40:38.909Z,4.80
2023-04-28T07:43:06.765Z,4.28
2023-04-28T07:45:39.303Z,3.65
2023-04-28T07:48:07.330Z,2.55
2023-04-28T07:50:35.036Z,3.17
2023-04-28T07:53:02.740Z,2.67
2023-04-28T07:55:30.960Z,2.10
2023-04-28T07:57:58.781Z,3.08
2023-04-28T08:00:26.349Z,3.75
2023-04-28T08:02:54.219Z,2.28
2023-04-28T08:05:22.225Z,2.67
2023-04-28T08:07:49.969Z,2.45
2023-04-28T08:10:18.079Z,1.80
2023-04-28T08:12:46.050Z,2.33
2023-04-28T08:15:14.035Z,2.78
2023-04-28T08:17:41.982Z,2.53
2023-04-28T08:20:10.179Z,3.15
2023-04-28T08:22:38.154Z,2.93
2023-04-28T08:25:06.391Z,3.63
2023-04-28T08:27:37.530Z,3.50
2023-04-28T08:30:09.937Z,3.63
2023-04-28T08:32:38.071Z,3.50
2023-04-28T08:35:06.646Z,2.75
2023-04-28T08:37:35.158Z,1.98
2023-04-28T08:40:08.840Z,3.90
2023-04-28T08:42:37.769Z,3.53
2023-04-28T08:45:06.359Z,2.45
2023-04-28T08:47:44.939Z,1.98
2023-04-28T08:50:14.245Z,2.47
2023-04-28T08:55:12.540Z,2.17
2023-04-28T08:57:45.750Z,1.92
2023-04-28T09:00:14.347Z,3.03
2023-04-28T09:02:42.945Z,2.53
2023-04-28T09:05:13.539Z,2.73
2023-04-28T09:07:48.177Z,2.47
2023-04-28T09:10:20.777Z,1.80
2023-04-28T09:12:51.797Z,2.03
2023-04-28T09:15:37.373Z,2.42
2023-04-28T09:18:06.548Z,3.22
2023-04-28T09:23:20.778Z,1.98
2023-04-28T09:26:08.292Z,1.95
2023-04-28T09:28:36.051Z,1.88
2023-04-28T09:31:04.278Z,2.00
2023-04-28T09:33:32.225Z,2.15
2023-04-28T09:36:00.217Z,2.08
2023-04-28T09:38:27.973Z,1.95
2023-04-28T09:41:03.208Z,2.13
2023-04-28T09:43:35.537Z,2.75
2023-04-28T09:46:05.477Z,1.90
2023-04-28T09:48:37.691Z,3.03
2023-04-28T09:51:07.433Z,2.40
2023-04-28T09:53:35.223Z,1.88
2023-04-28T09:56:06.836Z,2.80
2023-04-28T09:58:37.963Z,1.88
2023-04-28T10:01:08.669Z,2.33
2023-04-28T10:03:38.592Z,1.80
2023-04-28T10:06:07.947Z,2.38
2023-04-28T10:08:35.541Z,1.92
2023-04-28T10:11:03.933Z,1.92
2023-04-28T10:13:32.118Z,1.67
2023-04-28T10:16:01.642Z,1.75
2023-04-28T10:18:29.854Z,1.98
2023-04-28T10:21:03.164Z,2.25
2023-04-28T10:23:47.552Z,1.95
2023-04-28T10:26:19.356Z,1.40
2023-04-28T10:28:51.985Z,1.90
2023-04-28T10:31:22.263Z,2.13
2023-04-28T10:33:50.413Z,1.45
2023-04-28T10:36:51.745Z,2.45
2023-04-28T10:39:19.592Z,2.08
2023-04-28T10:41:48.339Z,1.80
2023-04-28T10:44:28.288Z,2.17
2023-04-28T10:47:07.415Z,1.60
2023-04-28T10:49:57.092Z,1.90
2023-04-28T10:52:37.927Z,2.22
2023-04-28T10:55:39.321Z,1.88
2023-04-28T10:58:16.243Z,1.70
2023-04-28T11:00:47.126Z,1.40
2023-04-28T11:04:12.404Z,1.60
2023-04-28T11:06:42.719Z,1.70
2023-04-28T11:09:18.976Z,2.13
2023-04-28T11:12:06.101Z,2.65
2023-04-28T11:14:39.997Z,3.08
2023-04-28T11:17:12.485Z,1.35
2023-04-28T11:19:46.002Z,2.42
2023-04-28T11:22:22.184Z,1.58
2023-04-28T11:25:02.126Z,1.60
2023-04-28T11:27:32.828Z,1.73
2023-04-28T11:30:05.420Z,2.83
2023-04-28T11:32:35.026Z,1.70
2023-04-28T11:35:04.001Z,1.92
2023-04-28T11:37:31.812Z,1.90
2023-04-28T11:40:11.418Z,2.25
2023-04-28T11:42:49.909Z,5.00
2023-04-28T11:45:17.850Z,1.80
2023-04-28T11:47:45.578Z,3.58
2023-04-28T11:50:15.130Z,3.25
2023-04-28T11:52:52.522Z,3.22
2023-04-28T11:55:21.498Z,2.38
2023-04-28T11:58:09.461Z,2.30
2023-04-28T12:00:37.111Z,2.10
2023-04-28T12:03:08.391Z,2.75
2023-04-28T12:05:44.905Z,2.33
2023-04-28T12:08:13.610Z,1.60
2023-04-28T12:10:41.272Z,2.47
2023-04-28T12:13:16.368Z,2.55
2023-04-28T12:15:44.089Z,6.95
2023-04-28T12:18:12.063Z,2.20
2023-04-28T12:20:40.220Z,2.60
2023-04-28T12:23:08.925Z,1.58
2023-04-28T12:25:44.615Z,2.00
2023-04-28T12:28:12.327Z,2.10
2023-04-28T12:30:43.183Z,3.05
2023-04-28T12:33:24.634Z,2.72
2023-04-28T12:35:56.022Z,2.33
2023-04-28T12:38:24.620Z,2.03
2023-04-28T12:40:52.677Z,1.83
2023-04-28T12:43:22.593Z,2.28
2023-04-28T12:45:52.493Z,1.98
2023-04-28T12:48:20.753Z,1.80
2023-04-28T12:50:48.759Z,1.25
2023-04-28T12:53:16.525Z,3.42
2023-04-28T12:55:44.258Z,1.95
2023-04-28T12:58:11.901Z,1.92
2023-04-28T13:00:41.411Z,1.92
2023-04-28T13:03:09.258Z,1.90
2023-04-28T13:05:37.139Z,2.53
2023-04-28T13:08:05.174Z,2.97
2023-04-28T13:10:33.050Z,2.08
2023-04-28T13:13:01.355Z,2.05
2023-04-28T13:15:30.404Z,3.13
2023-04-28T13:17:59.154Z,1.80
2023-04-28T13:20:26.920Z,1.88
2023-04-28T13:22:54.891Z,2.85
2023-04-28T13:25:22.708Z,2.58
2023-04-28T13:27:51.350Z,1.88
2023-04-28T13:30:19.260Z,2.85
2023-04-28T13:32:47.194Z,1.95
2023-04-28T13:35:14.981Z,2.03
2023-04-28T13:37:45.450Z,1.92
2023-04-28T13:40:13.271Z,2.40
2023-04-28T13:42:41.044Z,1.85
2023-04-28T13:45:09.431Z,2.10
2023-04-28T13:47:37.752Z,1.67
2023-04-28T13:50:06.188Z,1.83
2023-04-28T13:52:33.933Z,2.37
2023-04-28T13:55:01.743Z,1.80
2023-04-28T13:57:29.909Z,2.05
2023-04-28T13:59:57.714Z,2.53
2023-04-28T14:02:26.777Z,2.75
2023-04-28T14:04:54.733Z,1.77
2023-04-28T14:07:22.523Z,7.90
2023-04-28T14:09:50.299Z,2.55
2023-04-28T14:12:26.624Z,1.83
2023-04-28T14:15:05.191Z,2.45
2023-04-28T14:17:42.085Z,2.27
2023-04-28T14:20:18.739Z,4.15
2023-04-28T14:23:06.398Z,2.95
2023-04-28T14:25:42.947Z,2.97
2023-04-28T14:28:19.205Z,2.58
2023-04-28T14:30:55.459Z,2.78
2023-04-28T14:33:32.099Z,3.22
2023-04-28T14:36:08.571Z,2.20
2023-04-28T14:38:44.697Z,2.42
2023-04-28T14:41:21.179Z,2.90
2023-04-28T14:43:58.052Z,3.67
2023-04-28T14:46:35.995Z,2.20
2023-04-28T14:49:12.568Z,1.93
2023-04-28T14:51:49.567Z,2.22
2023-04-28T14:54:26.046Z,2.00
2023-04-28T14:57:02.518Z,1.77
2023-04-28T14:59:38.746Z,2.53
2023-04-28T15:02:15.360Z,2.50
2023-04-28T15:04:59.088Z,2.55
2023-04-28T15:07:35.530Z,2.85
2023-04-28T15:10:11.730Z,2.38
2023-04-28T15:12:48.952Z,2.17
2023-04-28T15:15:25.268Z,2.33
2023-04-28T15:18:01.404Z,2.50
2023-04-28T15:20:37.766Z,2.65
2023-04-28T15:23:14.176Z,2.13
2023-04-28T15:25:52.888Z,2.40
2023-04-28T15:28:29.308Z,2.90
2023-04-28T15:31:05.678Z,2.03
2023-04-28T15:33:42.386Z,2.85
2023-04-28T15:36:19.809Z,2.70
2023-04-28T15:38:56.036Z,2.45
2023-04-28T15:41:33.878Z,2.85
2023-04-28T15:44:10.049Z,2.78
2023-04-28T15:46:46.573Z,3.22
2023-04-28T15:49:22.714Z,2.55
2023-04-28T15:51:59.620Z,3.83
2023-04-28T15:54:36.064Z,1.80
2023-04-28T15:57:12.821Z,2.47
2023-04-28T15:59:50.972Z,2.25
2023-04-28T16:02:27.532Z,2.08
2023-04-28T16:05:04.781Z,1.98
2023-04-28T16:07:41.780Z,2.65
2023-04-28T16:10:18.258Z,4.78
2023-04-28T16:12:54.684Z,2.90
2023-04-28T16:15:31.297Z,3.35
2023-04-28T16:18:07.894Z,3.60
2023-04-28T16:20:44.438Z,2.92
2023-04-28T16:23:20.949Z,2.60
2023-04-28T16:25:57.094Z,2.75
2023-04-28T16:28:33.997Z,3.05
2023-04-28T16:31:13.270Z,2.88
2023-04-28T16:33:49.910Z,3.15
2023-04-28T16:36:29.443Z,3.63
2023-04-28T16:39:05.603Z,3.65
2023-04-28T16:41:42.038Z,3.90
2023-04-28T16:44:18.638Z,4.70
2023-04-28T16:46:54.778Z,3.33
2023-04-28T16:49:31.213Z,2.78
2023-04-28T16:52:09.060Z,2.33
2023-04-28T16:54:45.504Z,2.83
2023-04-28T16:57:21.661Z,3.30
2023-04-28T16:59:58.177Z,3.05
2023-04-28T17:02:35.091Z,2.78
2023-04-28T17:05:11.812Z,4.15
2023-04-28T17:07:48.074Z,2.90
2023-04-28T17:10:24.911Z,3.47
2023-04-28T17:13:01.354Z,3.88
2023-04-28T17:15:37.843Z,3.63
2023-04-28T17:18:13.922Z,3.95
2023-04-28T17:20:50.716Z,3.67
2023-04-28T17:23:27.138Z,2.92
2023-04-28T17:26:04.447Z,4.45
2023-04-28T17:28:41.102Z,4.32
2023-04-28T17:31:17.674Z,4.15
2023-04-28T17:33:56.951Z,4.35
2023-04-28T17:39:09.317Z,5.00
2023-04-28T17:41:46.284Z,4.57
2023-04-28T17:44:22.392Z,4.50
2023-04-28T17:47:00.551Z,4.00
2023-04-28T17:49:39.912Z,4.88
2023-04-28T17:54:52.782Z,6.18
2023-04-28T17:57:29.478Z,6.68
2023-04-28T18:00:06.775Z,7.82
2023-04-28T18:02:48.218Z,9.45
2023-04-28T18:05:25.512Z,8.73
2023-04-28T18:08:05.798Z,8.73
2023-04-28T18:10:42.167Z,9.85
2023-04-28T18:13:18.793Z,9.27
2023-04-28T18:15:55.075Z,8.63
2023-04-28T18:18:33.299Z,7.05
2023-04-28T18:21:11.879Z,6.93
2023-04-28T18:23:48.308Z,9.90
2023-04-28T18:26:42.925Z,6.43
2023-04-28T18:29:19.969Z,6.57
2023-04-28T18:31:56.470Z,6.70
2023-04-28T18:34:32.940Z,8.00
2023-04-28T18:37:10.064Z,7.55
2023-04-28T18:39:46.405Z,6.53
2023-04-28T18:42:23.587Z,6.15
2023-04-28T18:44:59.890Z,10.48
2023-04-28T18:47:36.087Z,9.15
2023-04-28T18:50:12.545Z,18.83
2023-04-28T18:52:48.954Z,9.18
2023-04-28T18:55:25.628Z,6.22
2023-04-28T18:58:03.505Z,6.47
2023-04-28T19:00:44.840Z,9.00
2023-04-28T19:03:22.296Z,9.07
2023-04-28T19:05:58.864Z,14.48
2023-04-28T19:08:38.368Z,18.35
2023-04-28T19:13:51.607Z,16.95
2023-04-28T19:16:27.970Z,18.20
2023-04-28T19:19:05.000Z,17.60
2023-04-28T19:21:43.975Z,15.60
2023-04-28T19:24:20.583Z,9.65
2023-04-28T19:26:48.785Z,7.60
2023-04-28T19:29:16.763Z,8.38
2023-04-28T19:31:54.078Z,7.35
2023-04-28T19:34:31.012Z,8.88
2023-04-28T19:37:10.762Z,11.98
2023-04-28T19:39:48.434Z,12.68
2023-04-28T19:42:25.323Z,15.65
2023-04-28T19:45:02.113Z,14.10
2023-04-28T19:47:38.925Z,11.00
2023-04-28T19:50:18.077Z,12.73
2023-04-28T19:52:54.356Z,13.57
2023-04-28T19:55:31.429Z,11.77
2023-04-28T19:58:09.814Z,10.65
2023-04-28T20:00:47.290Z,12.93
2023-04-28T20:03:23.706Z,13.10
2023-04-28T20:06:00.420Z,10.95
2023-04-28T20:08:36.777Z,10.20
2023-04-28T20:11:13.521Z,9.70
2023-04-28T20:13:50.479Z,10.77
2023-04-28T20:16:27.113Z,10.80
2023-04-28T20:19:03.909Z,12.43
2023-04-28T20:21:41.406Z,13.27
2023-04-28T20:24:18.115Z,13.10
2023-04-28T20:26:54.699Z,11.20
2023-04-28T20:29:34.676Z,15.43
2023-04-28T20:32:11.096Z,16.65
2023-04-28T20:34:47.615Z,12.05
2023-04-28T20:37:25.259Z,10.55
2023-04-28T20:40:02.557Z,10.00
2023-04-28T20:42:38.763Z,13.00
2023-04-28T20:45:16.692Z,14.98
2023-04-28T20:47:54.556Z,12.93
2023-04-28T20:53:09.457Z,12.32
2023-04-28T20:55:45.977Z,12.32
2023-04-28T20:58:22.340Z,11.13
2023-04-28T21:00:59.683Z,13.88
2023-04-28T21:03:36.070Z,11.98
2023-04-28T21:06:12.426Z,15.10
2023-04-28T21:08:49.127Z,13.57
2023-04-28T21:11:26.486Z,12.38
2023-04-28T21:14:03.042Z,14.07
2023-04-28T21:16:39.543Z,11.80
2023-04-28T21:19:16.880Z,11.65
2023-04-28T21:21:53.648Z,10.15
2023-04-28T21:24:30.524Z,12.57
2023-04-28T21:27:06.799Z,11.38
2023-04-28T21:29:43.586Z,10.90
2023-04-28T21:32:19.763Z,12.43
2023-04-28T21:34:56.518Z,13.10
2023-04-28T21:37:32.968Z,10.98
2023-04-28T21:40:10.187Z,11.85
2023-04-28T21:42:46.667Z,11.40
2023-04-28T21:45:23.191Z,9.88
2023-04-28T21:47:59.786Z,11.95
2023-04-28T21:50:36.243Z,9.80
2023-04-28T21:53:12.493Z,9.75
2023-04-28T21:55:49.072Z,9.25
2023-04-28T21:58:25.228Z,11.07
2023-04-28T22:01:02.684Z,10.38
2023-04-28T22:03:39.653Z,9.38
2023-04-28T22:06:16.168Z,9.32
2023-04-28T22:08:53.305Z,8.98
2023-04-28T22:11:29.360Z,10.30
2023-04-28T22:14:05.953Z,11.27
2023-04-28T22:16:42.209Z,9.02
2023-04-28T22:19:18.612Z,9.68
2023-04-28T22:21:55.065Z,7.65
2023-04-28T22:24:31.850Z,7.70
2023-04-28T22:27:08.423Z,8.88
2023-04-28T22:29:44.669Z,9.60
2023-04-28T22:32:21.331Z,9.18
2023-04-28T22:34:57.584Z,10.32
2023-04-28T22:37:35.002Z,8.35
2023-04-28T22:40:11.933Z,10.05
2023-04-28T22:42:48.585Z,10.23
2023-04-28T22:45:25.056Z,14.30
2023-04-28T22:48:01.708Z,13.07
2023-04-28T22:50:38.238Z,13.40
2023-04-28T22:53:14.863Z,11.80
2023-04-28T22:55:51.476Z,14.57
2023-04-28T22:58:28.408Z,14.73
2023-04-28T23:01:04.985Z,13.73
2023-04-28T23:03:41.797Z,15.38
2023-04-28T23:06:18.370Z,16.58
2023-04-28T23:08:56.021Z,12.98
2023-04-28T23:11:32.600Z,13.18
2023-04-28T23:14:10.021Z,15.05
2023-04-28T23:16:46.219Z,11.32
2023-04-28T23:19:22.749Z,13.18
2023-04-28T23:21:59.391Z,14.50
2023-04-28T23:24:37.553Z,13.65
2023-04-28T23:27:13.756Z,13.95
2023-04-28T23:29:50.414Z,13.98
2023-04-28T23:32:26.932Z,15.88
2023-04-28T23:35:03.856Z,15.13
2023-04-28T23:37:39.907Z,18.60
2023-04-28T23:40:16.395Z,17.50
2023-04-28T23:42:52.886Z,18.25
2023-04-28T23:45:29.128Z,17.55
2023-04-28T23:48:06.359Z,16.52
2023-04-28T23:50:42.636Z,17.13
2023-04-28T23:53:30.207Z,15.50
2023-04-28T23:56:06.950Z,17.35
